createdAt,value
2018-07-08T00:03:22.676Z,23.60
2018-07-08T00:08:25.907Z,23.60
2018-07-08T00:13:29.098Z,23.50
2018-07-08T00:18:32.310Z,23.50
2018-07-08T00:23:35.561Z,23.40
2018-07-08T00:28:38.791Z,23.40
2018-07-08T00:33:42.030Z,23.30
2018-07-08T00:38:45.247Z,23.30
2018-07-08T00:43:48.547Z,23.30
2018-07-08T00:48:51.767Z,23.00
2018-07-08T00:53:55.041Z,23.10
2018-07-08T00:58:58.275Z,23.10
2018-07-08T01:04:01.504Z,22.70
2018-07-08T01:09:05.363Z,23.00
2018-07-08T01:14:08.584Z,23.00
2018-07-08T01:19:11.799Z,22.50
2018-07-08T01:24:15.079Z,22.90
2018-07-08T01:29:18.303Z,22.80
2018-07-08T01:34:21.504Z,22.90
2018-07-08T01:39:24.732Z,22.50
2018-07-08T01:44:27.985Z,22.70
2018-07-08T01:49:31.139Z,22.50
2018-07-08T01:54:34.358Z,22.60
2018-07-08T01:59:37.572Z,22.50
2018-07-08T02:04:40.798Z,22.60
2018-07-08T02:09:44.027Z,22.40
2018-07-08T02:14:47.495Z,22.50
2018-07-08T02:19:50.690Z,22.20
2018-07-08T02:24:53.927Z,22.20
2018-07-08T02:29:57.132Z,22.10
2018-07-08T02:35:00.555Z,22.30
2018-07-08T02:40:03.808Z,22.30
2018-07-08T02:45:07.036Z,22.10
2018-07-08T02:50:10.242Z,22.10
2018-07-08T02:55:13.467Z,22.10
2018-07-08T03:00:16.669Z,22.20
2018-07-08T03:05:19.887Z,22.10
2018-07-08T03:10:23.071Z,21.90
2018-07-08T03:15:26.247Z,21.90
2018-07-08T03:20:29.439Z,21.90
2018-07-08T03:25:32.623Z,21.60
2018-07-08T03:30:35.815Z,21.70
2018-07-08T03:35:38.999Z,22.00
2018-07-08T03:40:42.176Z,21.90
2018-07-08T03:45:45.364Z,21.60
2018-07-08T03:50:48.547Z,21.50
2018-07-08T03:55:51.751Z,21.60
2018-07-08T04:00:54.931Z,21.70
2018-07-08T04:05:58.167Z,21.80
2018-07-08T04:11:01.372Z,21.70
2018-07-08T04:16:04.639Z,21.50
2018-07-08T04:21:07.855Z,21.60
2018-07-08T04:26:11.100Z,21.70
2018-07-08T04:31:14.311Z,21.60
2018-07-08T04:36:17.523Z,21.50
2018-07-08T04:41:20.823Z,21.40
2018-07-08T04:46:24.022Z,21.40
2018-07-08T04:51:27.226Z,21.40
2018-07-08T04:56:30.436Z,21.30
2018-07-08T05:06:36.749Z,21.30
2018-07-08T05:11:39.883Z,21.40
2018-07-08T05:16:43.098Z,21.30
2018-07-08T05:21:46.306Z,21.30
2018-07-08T05:26:49.536Z,21.60
2018-07-08T05:31:52.747Z,21.20
2018-07-08T05:36:55.992Z,21.30
2018-07-08T05:41:59.208Z,21.40
2018-07-08T05:47:02.408Z,21.50
2018-07-08T05:52:06.463Z,21.50
2018-07-08T05:57:09.650Z,21.70
2018-07-08T06:02:13.358Z,21.70
2018-07-08T06:07:16.819Z,21.60
2018-07-08T06:12:20.035Z,21.90
2018-07-08T06:17:23.264Z,21.80
2018-07-08T06:22:26.483Z,22.00
2018-07-08T06:27:29.683Z,22.00
2018-07-08T06:32:32.871Z,22.00
2018-07-08T06:37:36.075Z,22.00
2018-07-08T06:42:39.275Z,22.00
2018-07-08T06:47:42.679Z,22.40
2018-07-08T06:52:45.896Z,22.20
2018-07-08T06:57:49.145Z,22.20
2018-07-08T07:02:52.550Z,22.30
2018-07-08T07:07:55.896Z,22.40
2018-07-08T07:12:59.162Z,22.50
2018-07-08T07:18:02.328Z,22.20
2018-07-08T07:23:05.604Z,22.60
2018-07-08T07:28:08.743Z,22.80
2018-07-08T07:33:12.042Z,22.50
2018-07-08T07:38:15.247Z,22.90
2018-07-08T07:43:18.463Z,22.80
2018-07-08T07:48:21.675Z,22.70
2018-07-08T07:53:24.875Z,22.90
2018-07-08T07:58:28.071Z,23.00
2018-07-08T08:03:31.607Z,23.20
2018-07-08T08:08:34.858Z,23.10
2018-07-08T08:13:45.520Z,22.90
2018-07-08T08:18:48.696Z,23.20
2018-07-08T08:23:51.977Z,23.10
2018-07-08T08:28:55.179Z,23.30
2018-07-08T08:35:08.547Z,23.30
2018-07-08T08:40:12.452Z,23.30
2018-07-08T08:45:17.296Z,23.00
2018-07-08T08:50:20.473Z,23.40
2018-07-08T08:55:23.647Z,23.60
2018-07-08T09:00:26.829Z,23.60
2018-07-08T09:05:31.172Z,23.60
2018-07-08T09:10:34.715Z,23.60
2018-07-08T09:15:37.888Z,23.60
2018-07-08T09:20:41.078Z,23.60
2018-07-08T09:25:44.264Z,23.20
2018-07-08T09:30:47.475Z,23.60
2018-07-08T09:35:50.739Z,23.70
2018-07-08T09:40:53.916Z,23.70
2018-07-08T09:45:57.134Z,23.80
2018-07-08T09:51:00.308Z,23.80
2018-07-08T09:56:03.503Z,23.90
2018-07-08T10:01:06.715Z,23.90
2018-07-08T10:06:09.984Z,23.90
2018-07-08T10:11:13.166Z,23.80
2018-07-08T10:16:16.379Z,23.90
2018-07-08T10:21:19.565Z,24.10
2018-07-08T10:26:22.756Z,24.20
2018-07-08T10:36:34.558Z,24.50
2018-07-08T10:41:37.723Z,24.20
2018-07-08T10:46:41.219Z,24.60
2018-07-08T10:51:44.416Z,24.70
2018-07-08T10:56:47.598Z,24.80
2018-07-08T11:01:50.813Z,24.70
2018-07-08T11:06:54.032Z,25.00
2018-07-08T11:11:57.311Z,25.00
2018-07-08T11:17:00.519Z,25.10
2018-07-08T11:22:03.731Z,25.10
2018-07-08T11:27:07.143Z,25.10
2018-07-08T11:32:10.351Z,24.90
2018-07-08T11:37:13.628Z,25.30
2018-07-08T11:42:16.838Z,25.20
2018-07-08T11:52:23.035Z,25.70
2018-07-08T11:57:26.244Z,25.80
2018-07-08T12:02:29.620Z,26.00
2018-07-08T12:07:32.834Z,25.90
2018-07-08T12:12:36.020Z,25.80
2018-07-08T12:17:39.206Z,25.80
2018-07-08T12:22:42.392Z,25.90
2018-07-08T12:27:45.686Z,25.90
2018-07-08T12:32:48.762Z,25.80
2018-07-08T12:37:52.031Z,25.90
2018-07-08T12:42:55.223Z,26.10
2018-07-08T12:47:58.414Z,26.10
2018-07-08T12:53:01.589Z,26.00
2018-07-08T12:58:04.835Z,26.10
2018-07-08T13:03:08.023Z,26.20
2018-07-08T13:08:11.239Z,26.40
2018-07-08T13:13:14.430Z,26.40
2018-07-08T13:18:17.615Z,26.30
2018-07-08T13:23:20.803Z,26.20
2018-07-08T13:28:23.983Z,26.30
2018-07-08T13:33:27.355Z,26.00
2018-07-08T13:38:30.546Z,26.00
2018-07-08T13:43:33.731Z,26.10
2018-07-08T13:48:36.920Z,26.30
2018-07-08T13:53:40.104Z,26.30
2018-07-08T13:58:43.284Z,26.20
2018-07-08T14:03:46.506Z,26.30
2018-07-08T14:08:49.694Z,26.40
2018-07-08T14:13:52.907Z,26.40
2018-07-08T14:18:56.088Z,26.20
2018-07-08T14:23:59.280Z,26.20
2018-07-08T14:29:02.465Z,26.20
2018-07-08T14:34:05.675Z,26.40
2018-07-08T14:39:09.579Z,26.50
2018-07-08T14:44:12.759Z,26.60
2018-07-08T14:49:15.959Z,26.60
2018-07-08T14:54:19.187Z,26.70
2018-07-08T14:59:22.373Z,26.80
2018-07-08T15:04:25.559Z,26.80
2018-07-08T15:09:28.763Z,26.80
2018-07-08T15:14:31.956Z,26.70
2018-07-08T15:19:35.151Z,26.60
2018-07-08T15:24:38.327Z,26.70
2018-07-08T15:29:41.523Z,27.00
2018-07-08T15:34:44.752Z,27.10
2018-07-08T15:39:47.931Z,27.00
2018-07-08T15:44:51.155Z,27.10
2018-07-08T15:49:54.373Z,27.10
2018-07-08T15:54:57.532Z,27.10
2018-07-08T16:00:00.730Z,27.10
2018-07-08T16:05:03.927Z,27.00
2018-07-08T16:10:07.807Z,26.90
2018-07-08T16:15:11.028Z,26.90
2018-07-08T16:20:14.243Z,27.00
2018-07-08T16:25:17.443Z,26.90
2018-07-08T16:30:20.643Z,26.90
2018-07-08T16:35:23.852Z,27.00
2018-07-08T16:40:27.047Z,27.00
2018-07-08T16:45:30.261Z,27.10
2018-07-08T16:50:33.475Z,27.20
2018-07-08T16:55:36.719Z,27.20
2018-07-08T17:00:39.915Z,27.10
2018-07-08T17:05:43.144Z,27.10
2018-07-08T17:10:46.359Z,27.00
2018-07-08T17:15:49.582Z,27.10
2018-07-08T17:20:52.859Z,27.10
2018-07-08T17:25:56.075Z,27.20
2018-07-08T17:30:59.292Z,27.30
2018-07-08T17:36:02.500Z,27.30
2018-07-08T17:41:06.120Z,27.20
2018-07-08T17:46:09.342Z,27.20
2018-07-08T17:51:12.555Z,27.30
2018-07-08T17:56:15.751Z,27.30
2018-07-08T18:01:18.975Z,27.30
2018-07-08T18:06:22.195Z,27.20
2018-07-08T18:11:25.382Z,27.30
2018-07-08T18:16:28.558Z,27.30
2018-07-08T18:21:31.752Z,27.30
2018-07-08T18:26:34.951Z,27.30
2018-07-08T18:31:38.263Z,27.40
2018-07-08T18:36:41.447Z,27.40
2018-07-08T18:41:44.645Z,27.40
2018-07-08T18:46:47.832Z,27.30
2018-07-08T18:51:51.448Z,27.40
2018-07-08T18:56:54.639Z,27.40
2018-07-08T19:01:58.040Z,27.30
2018-07-08T19:07:01.259Z,27.30
2018-07-08T19:12:04.467Z,27.30
2018-07-08T19:17:07.863Z,27.30
2018-07-08T19:22:11.054Z,27.20
2018-07-08T19:27:14.267Z,27.10
2018-07-08T19:32:17.507Z,27.10
2018-07-08T19:37:20.840Z,27.10
2018-07-08T19:42:24.182Z,27.00
2018-07-08T19:47:27.507Z,26.90
2018-07-08T19:52:30.751Z,26.90
2018-07-08T19:57:34.098Z,26.90
2018-07-08T20:02:37.387Z,26.80
2018-07-08T20:07:40.829Z,26.70
2018-07-08T20:12:44.323Z,26.60
2018-07-08T20:17:47.619Z,26.60
2018-07-08T20:22:50.819Z,26.50
2018-07-08T20:27:54.734Z,26.40
2018-07-08T20:32:58.008Z,26.40
2018-07-08T20:38:01.252Z,26.30
2018-07-08T20:43:04.805Z,26.20
2018-07-08T20:48:08.069Z,26.10
2018-07-08T20:53:11.227Z,26.00
2018-07-08T20:58:14.774Z,25.90
2018-07-08T21:03:18.151Z,25.80
2018-07-08T21:08:21.383Z,25.80
2018-07-08T21:13:24.745Z,25.70
2018-07-08T21:18:27.971Z,25.60
2018-07-08T21:23:31.155Z,25.60
2018-07-08T21:28:34.343Z,25.40
2018-07-08T21:33:37.992Z,25.40
2018-07-08T21:38:41.456Z,25.30
2018-07-08T21:43:44.699Z,25.20
2018-07-08T21:48:47.917Z,25.20
2018-07-08T21:53:52.179Z,25.10
2018-07-08T21:58:55.386Z,25.10
2018-07-08T22:03:58.603Z,25.00
2018-07-08T22:09:01.821Z,24.90
2018-07-08T22:14:04.999Z,24.80
2018-07-08T22:19:08.180Z,24.80
2018-07-08T22:24:11.363Z,24.70
2018-07-08T22:29:14.555Z,24.60
2018-07-08T22:34:17.747Z,24.60
2018-07-08T22:39:20.933Z,24.50
2018-07-08T22:44:24.116Z,24.50
2018-07-08T22:49:27.302Z,24.40
2018-07-08T22:54:30.479Z,24.40
2018-07-08T22:59:43.923Z,24.30
2018-07-08T23:04:47.111Z,24.20
2018-07-08T23:09:50.338Z,24.20
2018-07-08T23:14:53.563Z,24.10
2018-07-08T23:19:57.180Z,24.10
2018-07-08T23:25:00.376Z,24.10
2018-07-08T23:30:03.840Z,24.00
2018-07-08T23:35:07.118Z,24.00
2018-07-08T23:40:10.335Z,23.90
2018-07-08T23:45:17.066Z,23.90
2018-07-08T23:50:20.283Z,23.80
2018-07-08T23:55:23.492Z,23.80
